首页
METAR-TAF:

METAR-TAF

机场 :

蓋恩斯維爾, 佛罗里达州, 美国

纬度: 29-41-31N, 经度: 082-16-32W, 海拔: 46米

当前天气观测

该预报发布于13分钟前的10:37 UTC
风速7节,风向东北
温度 23°C
湿度 89%
气压 1013 hPa
能見度: 16.1公里
多云层高于2900英尺
多云层高于3300英尺
阴天层高于7000英尺

METAR: KGNV 261037Z 05007KT 10SM BKN029 BKN033 OVC070 23/21 A2991 RMK AO2 T02280211

时间: 06:50 (10:50 UTC)

预报

该预报发布于1小时和53分钟前的08:57 UTC
预报有效从26日的 09点(UTC)到 27日的 06点(UTC)
风速6节,风向东转东北
能見度: 10公里
散云层高于1500英尺
阴天层高于2500英尺
附近有阵雨
从 26日的 1300点(UTC)
风速10节,风向东转东北,有时为16节阵风
能見度: 8.0公里
多云层高于800英尺
阴天层高于1500英尺
小雨, 轻雾
从 26日的 1800点(UTC)
风速10节,风向北转东北
能見度: 10公里
多云层高于2500英尺, 积雨云.
多云层高于4000英尺
附近有雷暴
从 27日的 0000点(UTC)
风速4节,风向东北
能見度: 10公里
多云层高于2500英尺

TAF: KGNV 260857Z 2609/2706 07006KT P6SM VCSH SCT015 OVC025 FM261300 06010G16KT 5SM -RA BR BKN008 OVC015 FM261800 03010KT P6SM VCTS BKN025CB BKN040 FM270000 05004KT P6SM BKN025

超过4000个机场的气象观测和天气预报(METAR&TAF报告)。

可查询的气象台以黄色和红色小点在地图上表示。

将鼠标移到小点上方,可查看气象台名称。

然后点击查看天气观测和预报。

如需切换地图:点击带黑十字的绿色按钮放大地图;点击带横线的绿色按钮缩小地图;或者点击绿色箭头查看邻近地区的地图。


METAR-TAF: